createdAt,value
2018-04-14T00:01:22.751Z,71.64
2018-04-14T00:03:51.199Z,71.57
2018-04-14T00:06:19.714Z,71.75
2018-04-14T00:08:48.177Z,71.63
2018-04-14T00:11:16.605Z,71.56
2018-04-14T00:13:45.179Z,71.51
2018-04-14T00:16:15.720Z,71.50
2018-04-14T00:18:44.124Z,72.18
2018-04-14T00:21:12.616Z,71.84
2018-04-14T00:23:41.542Z,72.16
2018-04-14T00:26:12.156Z,72.44
2018-04-14T00:28:42.812Z,72.85
2018-04-14T00:31:11.234Z,72.43
2018-04-14T00:33:39.673Z,72.70
2018-04-14T00:36:08.167Z,72.32
2018-04-14T00:38:36.592Z,72.52
2018-04-14T00:41:05.020Z,72.54
2018-04-14T00:43:33.459Z,72.81
2018-04-14T00:46:01.876Z,72.22
2018-04-14T00:48:30.316Z,72.41
2018-04-14T00:51:00.890Z,72.65
2018-04-14T00:53:35.562Z,72.62
2018-04-14T00:56:04.041Z,72.99
2018-04-14T00:58:34.207Z,73.34
2018-04-14T01:01:02.638Z,72.38
2018-04-14T01:03:31.058Z,72.53
2018-04-14T01:06:01.519Z,72.31
2018-04-14T01:08:32.019Z,71.52
2018-04-14T01:11:00.556Z,72.56
2018-04-14T01:13:30.799Z,72.28
2018-04-14T01:16:01.260Z,72.06
2018-04-14T01:18:30.962Z,72.05
2018-04-14T01:20:59.391Z,72.37
2018-04-14T01:23:27.817Z,72.41
2018-04-14T01:25:56.277Z,72.65
2018-04-14T01:28:26.767Z,72.79
2018-04-14T01:30:55.216Z,72.93
2018-04-14T01:33:23.627Z,73.21
2018-04-14T01:35:52.167Z,73.47
2018-04-14T01:38:20.587Z,73.15
2018-04-14T01:40:49.004Z,73.28
2018-04-14T01:43:17.487Z,72.88
2018-04-14T01:45:45.906Z,72.84
2018-04-14T01:48:14.690Z,73.01
2018-04-14T01:50:43.104Z,72.63
2018-04-14T01:53:13.193Z,72.77
2018-04-14T01:55:43.766Z,72.73
2018-04-14T01:58:12.503Z,73.10
2018-04-14T02:00:40.899Z,73.49
2018-04-14T02:03:10.111Z,73.92
2018-04-14T02:05:38.768Z,74.20
2018-04-14T02:08:09.320Z,74.61
2018-04-14T02:10:37.811Z,74.84
2018-04-14T02:13:06.257Z,74.36
2018-04-14T02:15:34.687Z,74.09
2018-04-14T02:18:03.172Z,73.85
2018-04-14T02:20:32.298Z,74.69
2018-04-14T02:23:02.703Z,75.14
2018-04-14T02:25:34.874Z,76.17
2018-04-14T02:28:03.412Z,77.08
2018-04-14T02:30:31.833Z,76.98
2018-04-14T02:33:00.235Z,77.23
2018-04-14T02:35:28.694Z,77.06
2018-04-14T02:37:57.096Z,77.54
2018-04-14T02:40:25.633Z,77.68
2018-04-14T02:42:56.020Z,77.67
2018-04-14T02:45:24.428Z,77.91
2018-04-14T02:47:54.315Z,77.50
2018-04-14T02:50:22.732Z,77.37
2018-04-14T02:52:51.163Z,76.78
2018-04-14T02:55:23.768Z,76.44
2018-04-14T02:57:55.368Z,76.75
2018-04-14T03:00:23.831Z,76.59
2018-04-14T03:02:52.287Z,76.65
2018-04-14T03:05:20.691Z,76.07
2018-04-14T03:07:52.897Z,75.86
2018-04-14T03:10:21.339Z,75.55
2018-04-14T03:12:51.743Z,75.47
2018-04-14T03:15:22.299Z,75.44
2018-04-14T03:17:52.779Z,76.05
2018-04-14T03:20:21.182Z,76.55
2018-04-14T03:22:50.030Z,76.94
2018-04-14T03:25:20.416Z,76.66
2018-04-14T03:27:49.469Z,77.10
2018-04-14T03:30:17.915Z,77.34
2018-04-14T03:32:46.315Z,77.52
2018-04-14T03:35:14.852Z,77.16
2018-04-14T03:37:43.267Z,77.23
2018-04-14T03:40:11.908Z,76.93
2018-04-14T03:42:40.343Z,77.35
2018-04-14T03:45:14.312Z,77.71
2018-04-14T03:47:42.715Z,77.35
2018-04-14T03:50:11.404Z,77.36
2018-04-14T03:52:39.811Z,77.45
2018-04-14T03:55:10.306Z,77.42
2018-04-14T03:57:38.779Z,77.36
2018-04-14T04:00:07.195Z,77.63
2018-04-14T04:02:37.791Z,77.68
2018-04-14T04:05:06.209Z,76.92
2018-04-14T04:07:34.671Z,77.24
2018-04-14T04:10:03.177Z,77.17
2018-04-14T04:12:33.172Z,76.87
2018-04-14T04:15:05.579Z,76.79
2018-04-14T04:17:34.045Z,77.66
2018-04-14T04:20:08.724Z,77.66
2018-04-14T04:22:43.275Z,77.43
2018-04-14T04:25:26.443Z,77.52
2018-04-14T04:27:55.804Z,77.39
2018-04-14T04:30:27.830Z,77.07
2018-04-14T04:32:58.924Z,77.00
2018-04-14T04:35:27.258Z,76.79
2018-04-14T04:37:56.151Z,76.95
2018-04-14T04:40:24.499Z,77.20
2018-04-14T04:42:55.016Z,76.96
2018-04-14T04:45:23.320Z,76.84
2018-04-14T04:47:51.623Z,76.23
2018-04-14T04:50:19.979Z,76.24
2018-04-14T04:52:51.747Z,76.13
2018-04-14T04:55:22.072Z,76.34
2018-04-14T04:57:50.411Z,75.22
2018-04-14T05:00:18.750Z,75.15
2018-04-14T05:02:47.090Z,75.50
2018-04-14T05:05:15.503Z,75.92
2018-04-14T05:07:44.175Z,75.88
2018-04-14T05:10:12.432Z,75.11
2018-04-14T05:12:42.267Z,75.55
2018-04-14T05:15:10.638Z,74.55
2018-04-14T05:17:38.984Z,74.50
2018-04-14T05:20:07.293Z,73.59
2018-04-14T05:22:36.136Z,73.53
2018-04-14T05:25:04.463Z,73.26
2018-04-14T05:27:33.135Z,72.56
2018-04-14T05:30:01.452Z,72.16
2018-04-14T05:32:29.780Z,71.43
2018-04-14T05:34:58.928Z,70.59
2018-04-14T05:37:27.246Z,69.53
2018-04-14T05:39:57.118Z,68.58
2018-04-14T05:42:26.435Z,68.02
2018-04-14T05:44:57.054Z,67.21
2018-04-14T05:47:28.025Z,67.19
2018-04-14T05:49:57.987Z,66.47
2018-04-14T05:52:26.684Z,65.76
2018-04-14T05:54:55.075Z,65.14
2018-04-14T05:57:23.402Z,64.35
2018-04-14T05:59:53.043Z,63.33
2018-04-14T06:02:21.435Z,62.10
2018-04-14T06:04:53.358Z,61.82
2018-04-14T06:07:21.797Z,61.09
2018-04-14T06:09:50.568Z,61.44
2018-04-14T06:12:18.887Z,62.11
2018-04-14T06:14:47.288Z,61.34
2018-04-14T06:17:18.750Z,60.55
2018-04-14T06:19:48.574Z,59.65
2018-04-14T06:22:20.322Z,59.33
2018-04-14T06:24:48.588Z,59.16
2018-04-14T06:27:18.201Z,58.41
2018-04-14T06:29:48.203Z,56.58
2018-04-14T06:32:16.605Z,56.09
2018-04-14T06:34:44.975Z,54.79
2018-04-14T06:37:13.351Z,54.99
2018-04-14T06:39:41.675Z,54.11
2018-04-14T06:42:09.993Z,54.11
2018-04-14T06:44:38.355Z,54.42
2018-04-14T06:47:06.988Z,52.85
2018-04-14T06:49:36.732Z,52.46
2018-04-14T06:52:05.056Z,51.80
2018-04-14T06:54:33.432Z,50.43
2018-04-14T06:57:02.815Z,49.03
2018-04-14T06:59:34.028Z,45.96
2018-04-14T07:02:02.658Z,44.68
2018-04-14T07:04:30.983Z,43.88
2018-04-14T07:07:00.812Z,42.29
2018-04-14T07:09:29.158Z,40.91
2018-04-14T07:11:56.523Z,41.89
2018-04-14T07:14:27.266Z,39.74
2018-04-14T07:16:55.593Z,38.63
2018-04-14T07:19:23.947Z,36.39
2018-04-14T07:21:52.232Z,34.61
2018-04-14T07:24:20.551Z,34.13
2018-04-14T07:26:49.068Z,34.47
2018-04-14T07:29:17.305Z,33.49
2018-04-14T07:31:46.668Z,32.70
2018-04-14T07:34:15.247Z,32.17
2018-04-14T07:36:43.565Z,29.34
2018-04-14T07:39:13.380Z,29.95
2018-04-14T07:41:43.258Z,28.50
2018-04-14T07:44:11.626Z,28.01
2018-04-14T07:46:39.969Z,27.98
2018-04-14T07:49:08.298Z,27.09
2018-04-14T07:51:38.133Z,27.55
2018-04-14T07:54:06.442Z,27.61
2018-04-14T07:56:34.731Z,25.35
2018-04-14T07:59:04.158Z,26.16
2018-04-14T08:01:32.478Z,25.26
2018-04-14T08:04:00.775Z,23.87
2018-04-14T08:06:30.247Z,24.43
2018-04-14T08:08:58.601Z,23.51
2018-04-14T08:11:28.372Z,25.14
2018-04-14T08:13:57.738Z,24.35
2018-04-14T08:16:26.075Z,24.12
2018-04-14T08:18:55.840Z,24.55
2018-04-14T08:21:24.212Z,23.98
2018-04-14T08:23:52.528Z,22.66
2018-04-14T08:26:20.799Z,23.33
2018-04-14T08:28:49.527Z,24.06
2018-04-14T08:31:17.934Z,22.50
2018-04-14T08:33:46.264Z,22.51
2018-04-14T08:36:16.784Z,21.77
2018-04-14T08:38:46.838Z,20.62
2018-04-14T08:41:16.216Z,19.62
2018-04-14T08:43:44.636Z,19.82
2018-04-14T08:46:12.963Z,19.40
2018-04-14T08:48:41.294Z,19.89
2018-04-14T08:51:09.679Z,19.56
2018-04-14T08:53:36.920Z,19.49
2018-04-14T08:56:05.956Z,19.12
2018-04-14T08:58:35.474Z,17.96
2018-04-14T09:01:03.855Z,18.94
2018-04-14T09:03:31.061Z,18.48
2018-04-14T09:05:59.596Z,18.22
2018-04-14T09:08:26.808Z,18.50
2018-04-14T09:10:55.068Z,18.45
2018-04-14T09:13:23.420Z,18.31
2018-04-14T09:15:51.373Z,18.70
2018-04-14T09:18:19.847Z,19.21
2018-04-14T09:20:49.307Z,18.97
2018-04-14T09:23:17.724Z,17.84
2018-04-14T09:25:46.176Z,17.37
2018-04-14T09:28:14.598Z,17.65
2018-04-14T09:30:42.252Z,17.47
2018-04-14T09:33:10.640Z,17.17
2018-04-14T09:35:38.694Z,16.63
2018-04-14T09:38:08.150Z,16.58
2018-04-14T09:40:36.589Z,16.55
2018-04-14T09:43:04.097Z,17.00
2018-04-14T09:45:33.740Z,16.69
2018-04-14T09:48:02.139Z,16.61
2018-04-14T09:50:30.607Z,17.88
2018-04-14T09:53:01.370Z,18.77
2018-04-14T09:55:28.738Z,18.65
2018-04-14T09:57:58.660Z,18.85
2018-04-14T10:00:28.191Z,17.95
2018-04-14T10:02:59.694Z,18.18
2018-04-14T10:05:28.191Z,17.47
2018-04-14T10:07:55.567Z,17.45
2018-04-14T10:10:26.135Z,16.41
2018-04-14T10:12:54.542Z,17.06
2018-04-14T10:15:22.922Z,17.00
2018-04-14T10:17:51.315Z,17.99
2018-04-14T10:20:20.927Z,18.66
2018-04-14T10:22:49.344Z,18.48
2018-04-14T10:25:18.804Z,17.10
2018-04-14T10:27:48.293Z,17.15
2018-04-14T10:30:19.850Z,16.82
2018-04-14T10:32:48.331Z,16.82
2018-04-14T10:35:15.676Z,18.22
2018-04-14T10:37:44.136Z,17.76
2018-04-14T10:40:12.639Z,17.74
2018-04-14T10:42:41.103Z,16.68
2018-04-14T10:45:09.172Z,17.28
2018-04-14T10:47:38.733Z,17.15
2018-04-14T10:50:07.147Z,17.21
2018-04-14T10:52:35.599Z,18.08
2018-04-14T10:55:05.050Z,18.28
2018-04-14T10:57:33.528Z,17.88
2018-04-14T11:00:00.904Z,18.84
2018-04-14T11:02:29.358Z,19.71
2018-04-14T11:04:57.795Z,20.26
2018-04-14T11:07:26.379Z,20.52
2018-04-14T11:09:54.823Z,20.65
2018-04-14T11:12:23.232Z,21.68
2018-04-14T11:14:51.727Z,20.56
2018-04-14T11:17:20.135Z,21.43
2018-04-14T11:19:48.591Z,21.36
2018-04-14T11:22:18.043Z,21.00
2018-04-14T11:24:46.464Z,21.81
2018-04-14T11:27:15.908Z,21.56
2018-04-14T11:29:44.416Z,21.62
2018-04-14T11:32:12.831Z,21.25
2018-04-14T11:34:41.643Z,22.06
2018-04-14T11:37:10.603Z,23.06
2018-04-14T11:39:39.049Z,23.28
2018-04-14T11:42:08.726Z,22.95
2018-04-14T11:44:37.190Z,22.90
2018-04-14T11:47:05.607Z,23.54
2018-04-14T11:49:34.052Z,25.12
2018-04-14T11:52:03.541Z,25.49
2018-04-14T11:54:32.072Z,25.27
2018-04-14T11:57:00.525Z,24.96
2018-04-14T11:59:29.960Z,24.76
2018-04-14T12:01:58.410Z,25.00
2018-04-14T12:04:26.798Z,25.00
2018-04-14T12:06:56.392Z,24.65
2018-04-14T12:09:25.431Z,24.87
2018-04-14T12:11:53.867Z,25.83
2018-04-14T12:14:22.314Z,26.16
2018-04-14T12:16:50.735Z,27.77
2018-04-14T12:19:19.139Z,27.30
2018-04-14T12:21:47.596Z,27.20
2018-04-14T12:24:17.072Z,26.44
2018-04-14T12:26:45.476Z,27.02
2018-04-14T12:29:13.912Z,25.93
2018-04-14T12:31:42.310Z,27.06
2018-04-14T12:34:10.771Z,26.44
2018-04-14T12:36:40.242Z,27.72
2018-04-14T12:39:09.709Z,26.25
2018-04-14T12:41:39.653Z,26.86
2018-04-14T12:44:08.087Z,27.58
2018-04-14T12:46:37.510Z,28.69
2018-04-14T12:49:07.447Z,28.32
2018-04-14T12:51:35.881Z,28.56
2018-04-14T12:54:04.272Z,27.91
2018-04-14T12:56:32.747Z,29.09
2018-04-14T12:59:01.199Z,28.56
2018-04-14T13:01:29.700Z,28.25
2018-04-14T13:03:58.131Z,28.08
2018-04-14T13:06:26.564Z,28.62
2018-04-14T13:08:54.943Z,30.05
2018-04-14T13:11:23.387Z,28.94
2018-04-14T13:13:51.843Z,29.27
2018-04-14T13:16:20.295Z,28.80
2018-04-14T13:18:48.682Z,28.72
2018-04-14T13:21:17.120Z,28.82
2018-04-14T13:23:45.574Z,29.35
2018-04-14T13:26:14.004Z,29.79
2018-04-14T13:28:43.633Z,28.54
2018-04-14T13:31:12.092Z,29.08
2018-04-14T13:33:40.559Z,29.01
2018-04-14T13:36:08.946Z,29.80
2018-04-14T13:38:38.403Z,29.23
2018-04-14T13:41:06.875Z,28.66
2018-04-14T13:43:35.422Z,28.80
2018-04-14T13:46:03.899Z,29.53
2018-04-14T13:48:32.363Z,30.24
2018-04-14T13:51:00.856Z,31.14
2018-04-14T13:53:30.333Z,32.12
2018-04-14T13:56:00.020Z,32.31
2018-04-14T13:58:29.586Z,32.15
2018-04-14T14:00:58.066Z,31.91
2018-04-14T14:03:27.559Z,32.32
2018-04-14T14:05:56.031Z,30.64
2018-04-14T14:08:24.515Z,31.51
2018-04-14T14:10:52.973Z,31.22
2018-04-14T14:13:21.443Z,31.88
2018-04-14T14:15:52.249Z,31.68
2018-04-14T14:18:21.756Z,31.62
2018-04-14T14:20:50.141Z,31.95
2018-04-14T14:23:18.579Z,31.34
2018-04-14T14:25:47.239Z,31.51
2018-04-14T14:28:15.668Z,32.23
2018-04-14T14:30:44.130Z,30.81
2018-04-14T14:33:12.843Z,29.96
2018-04-14T14:35:41.267Z,30.30
2018-04-14T14:38:09.687Z,30.84
2018-04-14T14:40:38.137Z,31.55
2018-04-14T14:43:06.635Z,32.05
2018-04-14T14:45:35.037Z,32.43
2018-04-14T14:48:04.734Z,31.06
2018-04-14T14:50:33.535Z,30.56
2018-04-14T14:53:05.535Z,32.86
2018-04-14T14:55:33.963Z,31.78
2018-04-14T14:58:02.362Z,32.41
2018-04-14T15:00:31.031Z,32.15
2018-04-14T15:03:01.477Z,32.38
2018-04-14T15:05:29.909Z,31.28
2018-04-14T15:07:58.355Z,32.28
2018-04-14T15:10:26.790Z,31.97
2018-04-14T15:12:55.238Z,32.05
2018-04-14T15:15:25.152Z,32.45
2018-04-14T15:17:53.990Z,31.89
2018-04-14T15:20:22.396Z,31.98
2018-04-14T15:22:52.936Z,31.97
2018-04-14T15:25:22.882Z,30.97
2018-04-14T15:27:51.295Z,29.39
2018-04-14T15:30:21.627Z,29.06
2018-04-14T15:32:50.014Z,29.06
2018-04-14T15:35:19.744Z,28.39
2018-04-14T15:37:48.192Z,28.80
2018-04-14T15:40:16.666Z,28.21
2018-04-14T15:42:45.038Z,28.38
2018-04-14T15:45:13.700Z,29.14
2018-04-14T15:47:43.439Z,28.80
2018-04-14T15:50:11.894Z,28.34
2018-04-14T15:52:40.509Z,29.02
2018-04-14T15:55:09.086Z,29.45
2018-04-14T15:57:40.748Z,29.79
2018-04-14T16:00:09.140Z,28.81
2018-04-14T16:02:39.097Z,28.96
2018-04-14T16:05:07.712Z,29.56
2018-04-14T16:07:36.086Z,30.33
2018-04-14T16:10:05.873Z,29.08
2018-04-14T16:12:35.775Z,29.38
2018-04-14T16:15:04.198Z,28.84
2018-04-14T16:17:34.219Z,28.83
2018-04-14T16:20:03.905Z,29.13
2018-04-14T16:22:32.440Z,29.41
2018-04-14T16:25:00.848Z,29.69
2018-04-14T16:27:29.266Z,29.53
2018-04-14T16:29:58.821Z,29.69
2018-04-14T16:32:27.443Z,29.37
2018-04-14T16:34:55.875Z,29.99
2018-04-14T16:37:24.319Z,30.82
2018-04-14T16:39:54.348Z,30.58
2018-04-14T16:42:22.808Z,31.50
2018-04-14T16:44:52.709Z,30.97
2018-04-14T16:47:21.124Z,32.47
2018-04-14T16:49:53.051Z,31.12
2018-04-14T16:52:21.503Z,30.21
2018-04-14T16:54:49.919Z,30.04
2018-04-14T16:57:18.374Z,30.31
2018-04-14T16:59:46.799Z,30.39
2018-04-14T17:02:15.282Z,31.01
2018-04-14T17:04:43.787Z,30.86
2018-04-14T17:07:13.776Z,30.95
2018-04-14T17:09:42.343Z,30.21
2018-04-14T17:12:12.044Z,31.00
2018-04-14T17:14:41.619Z,30.68
2018-04-14T17:17:10.060Z,30.45
2018-04-14T17:19:38.515Z,30.71
2018-04-14T17:22:08.012Z,30.84
2018-04-14T17:24:44.039Z,31.12
2018-04-14T17:27:12.474Z,31.64
2018-04-14T17:29:42.416Z,31.57
2018-04-14T17:32:10.865Z,31.16
2018-04-14T17:34:39.326Z,30.27
2018-04-14T17:37:07.845Z,31.24
2018-04-14T17:39:37.689Z,31.55
2018-04-14T17:42:06.167Z,30.77
2018-04-14T17:44:34.599Z,30.89
2018-04-14T17:47:03.163Z,31.34
2018-04-14T17:49:31.647Z,31.57
2018-04-14T17:52:00.113Z,31.98
2018-04-14T17:54:28.636Z,32.79
2018-04-14T17:56:57.082Z,32.79
2018-04-14T17:59:25.596Z,32.06
2018-04-14T18:01:54.075Z,32.21
2018-04-14T18:04:24.895Z,32.09
2018-04-14T18:06:53.353Z,32.51
2018-04-14T18:09:23.351Z,32.45
2018-04-14T18:11:51.970Z,33.13
2018-04-14T18:14:22.367Z,33.93
2018-04-14T18:16:53.212Z,32.39
2018-04-14T18:19:25.156Z,33.23
2018-04-14T18:21:55.494Z,33.66
2018-04-14T18:24:23.981Z,33.81
2018-04-14T18:26:52.420Z,33.61
2018-04-14T18:29:20.908Z,34.98
2018-04-14T18:31:49.390Z,35.53
2018-04-14T18:34:17.804Z,35.33
2018-04-14T18:36:46.268Z,35.15
2018-04-14T18:39:16.873Z,35.74
2018-04-14T18:41:48.835Z,35.57
2018-04-14T18:44:19.263Z,36.26
2018-04-14T18:46:51.283Z,36.54
2018-04-14T18:49:19.970Z,36.85
2018-04-14T18:51:48.403Z,36.24
2018-04-14T18:54:16.819Z,35.87
2018-04-14T18:56:47.439Z,37.14
2018-04-14T18:59:15.832Z,36.47
2018-04-14T19:01:48.484Z,37.05
2018-04-14T19:04:16.877Z,36.12
2018-04-14T19:06:45.246Z,36.98
2018-04-14T19:09:13.936Z,36.50
2018-04-14T19:11:42.343Z,36.76
2018-04-14T19:14:10.763Z,37.41
2018-04-14T19:16:39.607Z,38.18
2018-04-14T19:19:09.802Z,38.46
2018-04-14T19:21:38.236Z,38.91
2018-04-14T19:24:06.628Z,39.32
2018-04-14T19:26:37.215Z,39.10
2018-04-14T19:29:05.591Z,39.58
2018-04-14T19:31:38.279Z,39.80
2018-04-14T19:34:06.689Z,40.15
2018-04-14T19:36:35.079Z,40.11
2018-04-14T19:39:04.639Z,40.51
2018-04-14T19:41:33.152Z,41.36
2018-04-14T19:44:03.682Z,41.07
2018-04-14T19:46:32.111Z,40.70
2018-04-14T19:49:04.147Z,41.47
2018-04-14T19:51:36.632Z,41.76
2018-04-14T19:54:06.812Z,43.08
2018-04-14T19:56:35.281Z,43.59
2018-04-14T19:59:03.771Z,43.45
2018-04-14T20:01:32.221Z,43.81
2018-04-14T20:04:00.736Z,43.95
2018-04-14T20:06:29.171Z,44.46
2018-04-14T20:08:57.659Z,45.07
2018-04-14T20:11:26.447Z,44.53
2018-04-14T20:13:54.858Z,44.62
2018-04-14T20:16:23.263Z,45.67
2018-04-14T20:18:53.729Z,45.22
2018-04-14T20:21:24.294Z,46.08
2018-04-14T20:23:52.843Z,45.97
2018-04-14T20:26:21.416Z,46.17
2018-04-14T20:28:49.842Z,46.69
2018-04-14T20:31:18.335Z,46.84
2018-04-14T20:33:48.418Z,47.49
2018-04-14T20:36:16.880Z,47.93
2018-04-14T20:38:45.317Z,48.00
2018-04-14T20:41:14.039Z,47.70
2018-04-14T20:43:44.067Z,47.85
2018-04-14T20:46:12.446Z,47.98
2018-04-14T20:48:40.892Z,47.60
2018-04-14T20:51:09.331Z,47.61
2018-04-14T20:53:41.280Z,48.07
2018-04-14T20:56:09.735Z,48.19
2018-04-14T20:58:38.139Z,47.61
2018-04-14T21:01:06.533Z,48.47
2018-04-14T21:03:36.708Z,48.26
2018-04-14T21:06:05.160Z,48.01
2018-04-14T21:08:33.726Z,48.22
2018-04-14T21:11:02.160Z,48.87
2018-04-14T21:13:30.619Z,48.31
2018-04-14T21:15:59.259Z,48.87
2018-04-14T21:18:27.663Z,48.47
2018-04-14T21:20:56.119Z,48.98
2018-04-14T21:23:24.614Z,49.20
2018-04-14T21:25:55.104Z,48.58
2018-04-14T21:28:27.545Z,49.20
2018-04-14T21:30:55.991Z,49.42
2018-04-14T21:33:24.419Z,50.00
2018-04-14T21:35:52.799Z,49.32
2018-04-14T21:38:23.005Z,50.87
2018-04-14T21:40:51.498Z,50.09
2018-04-14T21:43:21.914Z,49.05
2018-04-14T21:45:50.335Z,49.26
2018-04-14T21:48:18.752Z,50.02
2018-04-14T21:50:47.328Z,49.97
2018-04-14T21:53:15.820Z,49.68
2018-04-14T21:55:44.234Z,49.59
2018-04-14T21:58:16.639Z,50.13
2018-04-14T22:00:45.164Z,50.71
2018-04-14T22:03:13.624Z,51.18
2018-04-14T22:05:42.066Z,51.53
2018-04-14T22:08:10.554Z,51.61
2018-04-14T22:10:38.944Z,51.57
2018-04-14T22:13:07.371Z,51.83
2018-04-14T22:15:35.955Z,52.06
2018-04-14T22:18:04.378Z,52.14
2018-04-14T22:20:34.911Z,51.41
2018-04-14T22:23:04.844Z,51.37
2018-04-14T22:25:33.277Z,51.35
2018-04-14T22:28:03.945Z,52.02
2018-04-14T22:30:32.356Z,52.15
2018-04-14T22:33:00.752Z,51.83
2018-04-14T22:35:29.179Z,52.25
2018-04-14T22:37:57.636Z,52.31
2018-04-14T22:40:27.152Z,52.45
2018-04-14T22:42:55.599Z,52.54
2018-04-14T22:45:24.099Z,53.01
2018-04-14T22:47:52.651Z,53.28
2018-04-14T22:50:21.079Z,53.33
2018-04-14T22:52:49.479Z,53.24
2018-04-14T22:55:19.459Z,53.33
2018-04-14T22:57:47.835Z,53.72
2018-04-14T23:00:16.304Z,53.87
2018-04-14T23:02:50.748Z,54.22
2018-04-14T23:05:27.703Z,54.87
2018-04-14T23:07:57.680Z,54.68
2018-04-14T23:10:26.087Z,54.97
2018-04-14T23:12:56.063Z,54.64
2018-04-14T23:15:24.604Z,55.71
2018-04-14T23:17:53.007Z,55.61
2018-04-14T23:20:21.367Z,55.21
2018-04-14T23:22:49.795Z,55.87
2018-04-14T23:25:18.144Z,54.05
2018-04-14T23:27:47.400Z,54.46
2018-04-14T23:30:15.847Z,55.10
2018-04-14T23:32:44.363Z,55.15
2018-04-14T23:35:12.722Z,55.36
2018-04-14T23:37:41.721Z,55.67
2018-04-14T23:40:10.160Z,56.02
2018-04-14T23:42:38.643Z,56.02
2018-04-14T23:45:07.047Z,56.42
2018-04-14T23:47:37.599Z,56.24
2018-04-14T23:50:06.023Z,56.64
2018-04-14T23:52:34.403Z,57.02
2018-04-14T23:55:03.587Z,56.79
2018-04-14T23:57:31.999Z,56.99
